sensor_id;sensor_type;location;lat;lon;timestamp;P1;durP1;ratioP1;P2;durP2;ratioP2
68192;SDS011;55012;47.562;18.414;2024-02-23T00:02:17;4.70;;;2.80;;
68192;SDS011;55012;47.562;18.414;2024-02-23T00:04:42;8.23;;;3.10;;
68192;SDS011;55012;47.562;18.414;2024-02-23T00:07:08;5.43;;;3.03;;
68192;SDS011;55012;47.562;18.414;2024-02-23T00:09:33;4.78;;;2.47;;
68192;SDS011;55012;47.562;18.414;2024-02-23T00:11:59;6.85;;;3.00;;
68192;SDS011;55012;47.562;18.414;2024-02-23T00:14:24;5.47;;;2.75;;
68192;SDS011;55012;47.562;18.414;2024-02-23T00:16:49;6.18;;;3.13;;
68192;SDS011;55012;47.562;18.414;2024-02-23T00:19:15;9.73;;;3.47;;
68192;SDS011;55012;47.562;18.414;2024-02-23T00:21:43;5.85;;;2.80;;
68192;SDS011;55012;47.562;18.414;2024-02-23T00:24:12;4.97;;;2.72;;
68192;SDS011;55012;47.562;18.414;2024-02-23T00:26:38;4.65;;;2.53;;
68192;SDS011;55012;47.562;18.414;2024-02-23T00:29:03;4.82;;;2.78;;
68192;SDS011;55012;47.562;18.414;2024-02-23T00:31:28;5.45;;;2.80;;
68192;SDS011;55012;47.562;18.414;2024-02-23T00:33:54;4.68;;;3.05;;
68192;SDS011;55012;47.562;18.414;2024-02-23T00:36:19;7.55;;;3.00;;
68192;SDS011;55012;47.562;18.414;2024-02-23T00:38:45;5.78;;;2.72;;
68192;SDS011;55012;47.562;18.414;2024-02-23T00:41:10;6.50;;;2.95;;
68192;SDS011;55012;47.562;18.414;2024-02-23T00:43:39;6.20;;;2.97;;
68192;SDS011;55012;47.562;18.414;2024-02-23T00:46:05;4.82;;;2.90;;
68192;SDS011;55012;47.562;18.414;2024-02-23T00:48:31;6.30;;;3.15;;
68192;SDS011;55012;47.562;18.414;2024-02-23T00:50:56;5.88;;;2.88;;
68192;SDS011;55012;47.562;18.414;2024-02-23T00:53:22;7.40;;;3.10;;
68192;SDS011;55012;47.562;18.414;2024-02-23T00:55:47;5.18;;;3.05;;
68192;SDS011;55012;47.562;18.414;2024-02-23T00:58:13;4.07;;;2.80;;
68192;SDS011;55012;47.562;18.414;2024-02-23T01:00:38;4.68;;;2.92;;
68192;SDS011;55012;47.562;18.414;2024-02-23T01:03:03;6.28;;;3.13;;
68192;SDS011;55012;47.562;18.414;2024-02-23T01:05:29;5.32;;;2.80;;
68192;SDS011;55012;47.562;18.414;2024-02-23T01:07:55;5.60;;;3.10;;
68192;SDS011;55012;47.562;18.414;2024-02-23T01:10:20;4.57;;;2.95;;
68192;SDS011;55012;47.562;18.414;2024-02-23T01:12:45;5.10;;;2.90;;
68192;SDS011;55012;47.562;18.414;2024-02-23T01:15:11;5.47;;;3.20;;
68192;SDS011;55012;47.562;18.414;2024-02-23T01:17:36;5.72;;;3.30;;
68192;SDS011;55012;47.562;18.414;2024-02-23T01:20:02;6.28;;;3.55;;
68192;SDS011;55012;47.562;18.414;2024-02-23T01:22:28;7.40;;;3.80;;
68192;SDS011;55012;47.562;18.414;2024-02-23T01:24:53;7.25;;;3.58;;
68192;SDS011;55012;47.562;18.414;2024-02-23T01:27:19;7.18;;;3.42;;
68192;SDS011;55012;47.562;18.414;2024-02-23T01:29:44;6.13;;;3.17;;
68192;SDS011;55012;47.562;18.414;2024-02-23T01:32:09;5.93;;;3.00;;
68192;SDS011;55012;47.562;18.414;2024-02-23T01:34:34;7.47;;;3.35;;
68192;SDS011;55012;47.562;18.414;2024-02-23T01:37:00;6.78;;;3.50;;
68192;SDS011;55012;47.562;18.414;2024-02-23T01:39:26;5.90;;;3.42;;
68192;SDS011;55012;47.562;18.414;2024-02-23T01:41:51;5.22;;;3.42;;
68192;SDS011;55012;47.562;18.414;2024-02-23T01:44:16;8.00;;;3.50;;
68192;SDS011;55012;47.562;18.414;2024-02-23T01:46:42;6.57;;;3.55;;
68192;SDS011;55012;47.562;18.414;2024-02-23T01:49:08;7.45;;;3.40;;
68192;SDS011;55012;47.562;18.414;2024-02-23T01:51:34;5.13;;;3.50;;
68192;SDS011;55012;47.562;18.414;2024-02-23T01:54:00;4.13;;;2.83;;
68192;SDS011;55012;47.562;18.414;2024-02-23T01:56:26;6.65;;;3.38;;
68192;SDS011;55012;47.562;18.414;2024-02-23T01:58:52;5.93;;;3.00;;
68192;SDS011;55012;47.562;18.414;2024-02-23T02:01:18;6.43;;;3.58;;
68192;SDS011;55012;47.562;18.414;2024-02-23T02:03:44;11.30;;;3.70;;
68192;SDS011;55012;47.562;18.414;2024-02-23T02:06:09;6.38;;;3.65;;
68192;SDS011;55012;47.562;18.414;2024-02-23T02:08:35;5.10;;;3.20;;
68192;SDS011;55012;47.562;18.414;2024-02-23T02:11:01;5.78;;;3.17;;
68192;SDS011;55012;47.562;18.414;2024-02-23T02:13:29;6.55;;;3.55;;
68192;SDS011;55012;47.562;18.414;2024-02-23T02:15:56;7.28;;;3.78;;
68192;SDS011;55012;47.562;18.414;2024-02-23T02:18:25;6.90;;;3.60;;
68192;SDS011;55012;47.562;18.414;2024-02-23T02:20:52;5.40;;;3.42;;
68192;SDS011;55012;47.562;18.414;2024-02-23T02:23:19;5.63;;;3.72;;
68192;SDS011;55012;47.562;18.414;2024-02-23T02:25:45;6.93;;;3.78;;
68192;SDS011;55012;47.562;18.414;2024-02-23T02:28:10;10.23;;;5.07;;
68192;SDS011;55012;47.562;18.414;2024-02-23T02:30:36;7.40;;;3.50;;
68192;SDS011;55012;47.562;18.414;2024-02-23T02:33:01;6.75;;;3.78;;
68192;SDS011;55012;47.562;18.414;2024-02-23T02:35:26;6.93;;;3.70;;
68192;SDS011;55012;47.562;18.414;2024-02-23T02:37:52;6.05;;;3.75;;
68192;SDS011;55012;47.562;18.414;2024-02-23T02:40:17;8.25;;;4.00;;
68192;SDS011;55012;47.562;18.414;2024-02-23T02:42:42;6.65;;;3.72;;
68192;SDS011;55012;47.562;18.414;2024-02-23T02:45:08;5.68;;;3.50;;
68192;SDS011;55012;47.562;18.414;2024-02-23T02:47:33;9.00;;;4.88;;
68192;SDS011;55012;47.562;18.414;2024-02-23T02:49:58;8.50;;;4.95;;
68192;SDS011;55012;47.562;18.414;2024-02-23T02:52:24;6.40;;;3.80;;
68192;SDS011;55012;47.562;18.414;2024-02-23T02:54:49;6.70;;;3.80;;
68192;SDS011;55012;47.562;18.414;2024-02-23T02:57:15;8.48;;;4.00;;
68192;SDS011;55012;47.562;18.414;2024-02-23T02:59:40;6.35;;;3.80;;
68192;SDS011;55012;47.562;18.414;2024-02-23T03:02:06;8.70;;;3.60;;
68192;SDS011;55012;47.562;18.414;2024-02-23T03:04:31;7.60;;;4.07;;
68192;SDS011;55012;47.562;18.414;2024-02-23T03:06:56;7.07;;;3.92;;
68192;SDS011;55012;47.562;18.414;2024-02-23T03:09:22;6.82;;;3.75;;
68192;SDS011;55012;47.562;18.414;2024-02-23T03:11:47;6.63;;;3.53;;
68192;SDS011;55012;47.562;18.414;2024-02-23T03:14:12;6.28;;;3.25;;
68192;SDS011;55012;47.562;18.414;2024-02-23T03:16:38;5.32;;;3.25;;
68192;SDS011;55012;47.562;18.414;2024-02-23T03:19:03;6.28;;;3.70;;
68192;SDS011;55012;47.562;18.414;2024-02-23T03:21:29;6.28;;;3.38;;
68192;SDS011;55012;47.562;18.414;2024-02-23T03:23:55;6.63;;;3.67;;
68192;SDS011;55012;47.562;18.414;2024-02-23T03:26:20;8.73;;;3.80;;
68192;SDS011;55012;47.562;18.414;2024-02-23T03:28:46;4.85;;;2.90;;
68192;SDS011;55012;47.562;18.414;2024-02-23T03:31:11;5.05;;;3.10;;
68192;SDS011;55012;47.562;18.414;2024-02-23T03:33:37;6.63;;;3.08;;
68192;SDS011;55012;47.562;18.414;2024-02-23T03:36:02;6.50;;;3.63;;
68192;SDS011;55012;47.562;18.414;2024-02-23T03:38:28;5.35;;;3.75;;
68192;SDS011;55012;47.562;18.414;2024-02-23T03:40:55;6.20;;;3.33;;
68192;SDS011;55012;47.562;18.414;2024-02-23T03:43:20;8.05;;;4.03;;
68192;SDS011;55012;47.562;18.414;2024-02-23T03:45:46;5.43;;;3.40;;
68192;SDS011;55012;47.562;18.414;2024-02-23T03:48:11;5.50;;;3.00;;
68192;SDS011;55012;47.562;18.414;2024-02-23T03:50:36;5.82;;;3.13;;
68192;SDS011;55012;47.562;18.414;2024-02-23T03:53:02;9.05;;;3.40;;
68192;SDS011;55012;47.562;18.414;2024-02-23T03:55:28;7.20;;;3.30;;
68192;SDS011;55012;47.562;18.414;2024-02-23T03:57:54;6.68;;;3.00;;
68192;SDS011;55012;47.562;18.414;2024-02-23T04:00:19;5.72;;;3.00;;
68192;SDS011;55012;47.562;18.414;2024-02-23T04:02:45;7.43;;;3.38;;
68192;SDS011;55012;47.562;18.414;2024-02-23T04:05:11;5.38;;;2.80;;
68192;SDS011;55012;47.562;18.414;2024-02-23T04:07:36;5.20;;;2.50;;
68192;SDS011;55012;47.562;18.414;2024-02-23T04:10:02;6.70;;;3.53;;
68192;SDS011;55012;47.562;18.414;2024-02-23T04:12:29;5.68;;;2.58;;
68192;SDS011;55012;47.562;18.414;2024-02-23T04:14:56;5.32;;;2.28;;
68192;SDS011;55012;47.562;18.414;2024-02-23T04:17:21;4.20;;;2.58;;
68192;SDS011;55012;47.562;18.414;2024-02-23T04:19:47;4.95;;;2.53;;
68192;SDS011;55012;47.562;18.414;2024-02-23T04:22:12;4.30;;;2.40;;
68192;SDS011;55012;47.562;18.414;2024-02-23T04:24:38;4.05;;;2.35;;
68192;SDS011;55012;47.562;18.414;2024-02-23T04:27:06;4.53;;;2.00;;
68192;SDS011;55012;47.562;18.414;2024-02-23T04:29:33;3.50;;;1.95;;
68192;SDS011;55012;47.562;18.414;2024-02-23T04:32:01;4.43;;;2.17;;
68192;SDS011;55012;47.562;18.414;2024-02-23T04:34:27;5.75;;;2.75;;
68192;SDS011;55012;47.562;18.414;2024-02-23T04:36:53;4.00;;;2.15;;
68192;SDS011;55012;47.562;18.414;2024-02-23T04:39:19;3.75;;;2.30;;
68192;SDS011;55012;47.562;18.414;2024-02-23T04:41:45;2.33;;;1.63;;
68192;SDS011;55012;47.562;18.414;2024-02-23T04:44:10;2.50;;;1.70;;
68192;SDS011;55012;47.562;18.414;2024-02-23T04:46:35;2.60;;;1.80;;
68192;SDS011;55012;47.562;18.414;2024-02-23T04:49:01;4.03;;;1.73;;
68192;SDS011;55012;47.562;18.414;2024-02-23T04:51:27;2.40;;;1.30;;
68192;SDS011;55012;47.562;18.414;2024-02-23T04:53:52;2.38;;;1.50;;
68192;SDS011;55012;47.562;18.414;2024-02-23T04:56:18;2.33;;;1.10;;
68192;SDS011;55012;47.562;18.414;2024-02-23T04:58:43;3.60;;;2.00;;
68192;SDS011;55012;47.562;18.414;2024-02-23T05:01:09;2.70;;;1.15;;
68192;SDS011;55012;47.562;18.414;2024-02-23T05:03:35;2.97;;;1.10;;
68192;SDS011;55012;47.562;18.414;2024-02-23T05:06:01;1.60;;;1.10;;
68192;SDS011;55012;47.562;18.414;2024-02-23T05:08:27;2.15;;;1.20;;
68192;SDS011;55012;47.562;18.414;2024-02-23T05:10:55;1.50;;;0.95;;
68192;SDS011;55012;47.562;18.414;2024-02-23T05:13:20;2.63;;;1.45;;
68192;SDS011;55012;47.562;18.414;2024-02-23T05:15:45;1.70;;;1.10;;
68192;SDS011;55012;47.562;18.414;2024-02-23T05:18:11;2.03;;;1.10;;
68192;SDS011;55012;47.562;18.414;2024-02-23T05:20:36;1.35;;;0.90;;
68192;SDS011;55012;47.562;18.414;2024-02-23T05:23:01;1.63;;;1.00;;
68192;SDS011;55012;47.562;18.414;2024-02-23T05:25:27;2.17;;;1.08;;
68192;SDS011;55012;47.562;18.414;2024-02-23T05:27:53;1.40;;;1.00;;
68192;SDS011;55012;47.562;18.414;2024-02-23T05:30:18;2.55;;;1.08;;
68192;SDS011;55012;47.562;18.414;2024-02-23T05:32:43;1.73;;;0.90;;
68192;SDS011;55012;47.562;18.414;2024-02-23T05:35:09;1.20;;;0.85;;
68192;SDS011;55012;47.562;18.414;2024-02-23T05:37:35;3.13;;;1.00;;
68192;SDS011;55012;47.562;18.414;2024-02-23T05:40:02;1.95;;;1.08;;
68192;SDS011;55012;47.562;18.414;2024-02-23T05:42:37;1.45;;;0.90;;
68192;SDS011;55012;47.562;18.414;2024-02-23T05:45:03;1.73;;;1.17;;
68192;SDS011;55012;47.562;18.414;2024-02-23T05:47:30;1.95;;;1.02;;
68192;SDS011;55012;47.562;18.414;2024-02-23T05:49:55;2.28;;;1.00;;
68192;SDS011;55012;47.562;18.414;2024-02-23T05:52:21;2.45;;;1.23;;
68192;SDS011;55012;47.562;18.414;2024-02-23T05:54:46;2.08;;;1.10;;
68192;SDS011;55012;47.562;18.414;2024-02-23T05:57:12;1.55;;;1.10;;
68192;SDS011;55012;47.562;18.414;2024-02-23T05:59:37;1.58;;;0.98;;
68192;SDS011;55012;47.562;18.414;2024-02-23T06:02:03;1.92;;;0.95;;
68192;SDS011;55012;47.562;18.414;2024-02-23T06:04:28;4.28;;;2.08;;
68192;SDS011;55012;47.562;18.414;2024-02-23T06:06:53;5.65;;;1.38;;
68192;SDS011;55012;47.562;18.414;2024-02-23T06:09:19;2.47;;;1.38;;
68192;SDS011;55012;47.562;18.414;2024-02-23T06:11:44;1.83;;;1.10;;
68192;SDS011;55012;47.562;18.414;2024-02-23T06:14:10;2.80;;;1.60;;
68192;SDS011;55012;47.562;18.414;2024-02-23T06:16:36;2.78;;;1.17;;
68192;SDS011;55012;47.562;18.414;2024-02-23T06:19:02;4.60;;;1.05;;
68192;SDS011;55012;47.562;18.414;2024-02-23T06:21:28;1.92;;;1.08;;
68192;SDS011;55012;47.562;18.414;2024-02-23T06:23:54;2.67;;;0.93;;
68192;SDS011;55012;47.562;18.414;2024-02-23T06:26:20;3.70;;;1.17;;
68192;SDS011;55012;47.562;18.414;2024-02-23T06:28:46;2.22;;;1.05;;
68192;SDS011;55012;47.562;18.414;2024-02-23T06:31:12;2.35;;;1.10;;
68192;SDS011;55012;47.562;18.414;2024-02-23T06:33:37;3.42;;;1.35;;
68192;SDS011;55012;47.562;18.414;2024-02-23T06:36:03;3.08;;;1.10;;
68192;SDS011;55012;47.562;18.414;2024-02-23T06:38:29;4.32;;;1.10;;
68192;SDS011;55012;47.562;18.414;2024-02-23T06:40:55;2.75;;;1.35;;
68192;SDS011;55012;47.562;18.414;2024-02-23T06:43:21;2.95;;;1.50;;
68192;SDS011;55012;47.562;18.414;2024-02-23T06:45:46;2.40;;;1.38;;
68192;SDS011;55012;47.562;18.414;2024-02-23T06:48:12;2.25;;;1.17;;
68192;SDS011;55012;47.562;18.414;2024-02-23T06:50:37;2.30;;;0.80;;
68192;SDS011;55012;47.562;18.414;2024-02-23T06:53:03;2.53;;;1.20;;
68192;SDS011;55012;47.562;18.414;2024-02-23T06:55:28;2.03;;;1.15;;
68192;SDS011;55012;47.562;18.414;2024-02-23T06:57:54;3.15;;;1.20;;
68192;SDS011;55012;47.562;18.414;2024-02-23T07:00:22;4.40;;;2.15;;
68192;SDS011;55012;47.562;18.414;2024-02-23T07:02:48;2.20;;;1.40;;
68192;SDS011;55012;47.562;18.414;2024-02-23T07:05:13;4.32;;;1.20;;
68192;SDS011;55012;47.562;18.414;2024-02-23T07:07:39;1.77;;;1.15;;
68192;SDS011;55012;47.562;18.414;2024-02-23T07:10:05;2.15;;;1.30;;
68192;SDS011;55012;47.562;18.414;2024-02-23T07:12:31;2.58;;;1.20;;
68192;SDS011;55012;47.562;18.414;2024-02-23T07:14:57;3.38;;;1.52;;
68192;SDS011;55012;47.562;18.414;2024-02-23T07:17:22;2.35;;;1.30;;
68192;SDS011;55012;47.562;18.414;2024-02-23T07:19:47;2.50;;;1.20;;
68192;SDS011;55012;47.562;18.414;2024-02-23T07:22:13;2.13;;;1.20;;
68192;SDS011;55012;47.562;18.414;2024-02-23T07:24:39;1.90;;;1.23;;
68192;SDS011;55012;47.562;18.414;2024-02-23T07:27:05;2.50;;;1.50;;
68192;SDS011;55012;47.562;18.414;2024-02-23T07:29:31;2.55;;;1.30;;
68192;SDS011;55012;47.562;18.414;2024-02-23T07:31:56;2.40;;;1.10;;
68192;SDS011;55012;47.562;18.414;2024-02-23T07:34:21;2.47;;;1.40;;
68192;SDS011;55012;47.562;18.414;2024-02-23T07:36:47;2.13;;;1.20;;
68192;SDS011;55012;47.562;18.414;2024-02-23T07:39:13;2.45;;;1.30;;
68192;SDS011;55012;47.562;18.414;2024-02-23T07:41:38;2.00;;;1.25;;
68192;SDS011;55012;47.562;18.414;2024-02-23T07:44:03;1.92;;;1.30;;
68192;SDS011;55012;47.562;18.414;2024-02-23T07:46:29;2.28;;;1.30;;
68192;SDS011;55012;47.562;18.414;2024-02-23T07:48:54;2.13;;;1.20;;
68192;SDS011;55012;47.562;18.414;2024-02-23T07:51:19;1.75;;;1.17;;
68192;SDS011;55012;47.562;18.414;2024-02-23T07:53:45;2.20;;;1.30;;
68192;SDS011;55012;47.562;18.414;2024-02-23T07:56:10;1.50;;;1.10;;
68192;SDS011;55012;47.562;18.414;2024-02-23T07:58:37;3.38;;;1.30;;
68192;SDS011;55012;47.562;18.414;2024-02-23T08:01:03;2.65;;;1.40;;
68192;SDS011;55012;47.562;18.414;2024-02-23T08:03:29;1.98;;;1.17;;
68192;SDS011;55012;47.562;18.414;2024-02-23T08:05:54;1.90;;;1.30;;
68192;SDS011;55012;47.562;18.414;2024-02-23T08:08:20;2.63;;;1.40;;
68192;SDS011;55012;47.562;18.414;2024-02-23T08:10:47;2.78;;;1.50;;
68192;SDS011;55012;47.562;18.414;2024-02-23T08:13:13;1.92;;;1.20;;
68192;SDS011;55012;47.562;18.414;2024-02-23T08:15:38;1.90;;;1.15;;
68192;SDS011;55012;47.562;18.414;2024-02-23T08:18:03;3.53;;;1.45;;
68192;SDS011;55012;47.562;18.414;2024-02-23T08:20:29;2.67;;;1.20;;
68192;SDS011;55012;47.562;18.414;2024-02-23T08:22:54;2.38;;;1.30;;
68192;SDS011;55012;47.562;18.414;2024-02-23T08:25:20;4.15;;;1.30;;
68192;SDS011;55012;47.562;18.414;2024-02-23T08:27:45;1.75;;;1.20;;
68192;SDS011;55012;47.562;18.414;2024-02-23T08:30:10;2.13;;;1.50;;
68192;SDS011;55012;47.562;18.414;2024-02-23T08:32:36;3.00;;;1.23;;
68192;SDS011;55012;47.562;18.414;2024-02-23T08:35:01;2.63;;;1.60;;
68192;SDS011;55012;47.562;18.414;2024-02-23T08:37:27;2.75;;;1.60;;
68192;SDS011;55012;47.562;18.414;2024-02-23T08:39:53;1.95;;;1.27;;
68192;SDS011;55012;47.562;18.414;2024-02-23T08:42:18;1.65;;;1.10;;
68192;SDS011;55012;47.562;18.414;2024-02-23T08:44:44;1.48;;;1.00;;
68192;SDS011;55012;47.562;18.414;2024-02-23T08:47:09;2.05;;;1.10;;
68192;SDS011;55012;47.562;18.414;2024-02-23T08:49:34;2.35;;;1.10;;
68192;SDS011;55012;47.562;18.414;2024-02-23T08:52:00;1.48;;;1.00;;
68192;SDS011;55012;47.562;18.414;2024-02-23T08:54:25;1.60;;;0.82;;
68192;SDS011;55012;47.562;18.414;2024-02-23T08:56:50;1.20;;;0.90;;
68192;SDS011;55012;47.562;18.414;2024-02-23T08:59:16;2.30;;;1.08;;
68192;SDS011;55012;47.562;18.414;2024-02-23T09:01:41;1.45;;;0.93;;
68192;SDS011;55012;47.562;18.414;2024-02-23T09:04:06;1.80;;;1.20;;
68192;SDS011;55012;47.562;18.414;2024-02-23T09:06:32;2.65;;;1.10;;
68192;SDS011;55012;47.562;18.414;2024-02-23T09:08:58;1.63;;;1.10;;
68192;SDS011;55012;47.562;18.414;2024-02-23T09:11:23;1.75;;;1.10;;
68192;SDS011;55012;47.562;18.414;2024-02-23T09:13:49;2.90;;;1.10;;
68192;SDS011;55012;47.562;18.414;2024-02-23T09:16:14;1.83;;;1.02;;
68192;SDS011;55012;47.562;18.414;2024-02-23T09:18:39;3.10;;;1.00;;
68192;SDS011;55012;47.562;18.414;2024-02-23T09:21:05;2.38;;;1.00;;
68192;SDS011;55012;47.562;18.414;2024-02-23T09:23:31;1.38;;;1.00;;
68192;SDS011;55012;47.562;18.414;2024-02-23T09:25:57;1.38;;;0.80;;
68192;SDS011;55012;47.562;18.414;2024-02-23T09:28:22;1.90;;;1.15;;
68192;SDS011;55012;47.562;18.414;2024-02-23T09:30:48;2.10;;;1.30;;
68192;SDS011;55012;47.562;18.414;2024-02-23T09:33:13;2.28;;;1.30;;
68192;SDS011;55012;47.562;18.414;2024-02-23T09:35:38;4.15;;;1.80;;
68192;SDS011;55012;47.562;18.414;2024-02-23T09:38:04;5.57;;;2.80;;
68192;SDS011;55012;47.562;18.414;2024-02-23T09:40:29;8.40;;;4.53;;
68192;SDS011;55012;47.562;18.414;2024-02-23T09:42:56;9.10;;;4.20;;
68192;SDS011;55012;47.562;18.414;2024-02-23T09:45:23;5.00;;;2.63;;
68192;SDS011;55012;47.562;18.414;2024-02-23T09:47:49;3.63;;;1.70;;
68192;SDS011;55012;47.562;18.414;2024-02-23T09:50:15;2.08;;;1.13;;
68192;SDS011;55012;47.562;18.414;2024-02-23T09:52:42;2.28;;;1.42;;
68192;SDS011;55012;47.562;18.414;2024-02-23T09:55:08;3.75;;;1.55;;
68192;SDS011;55012;47.562;18.414;2024-02-23T09:57:33;8.50;;;3.20;;
68192;SDS011;55012;47.562;18.414;2024-02-23T10:00:01;4.35;;;2.25;;
68192;SDS011;55012;47.562;18.414;2024-02-23T10:02:31;4.57;;;2.10;;
68192;SDS011;55012;47.562;18.414;2024-02-23T10:04:57;3.08;;;2.00;;
68192;SDS011;55012;47.562;18.414;2024-02-23T10:07:25;5.43;;;2.95;;
68192;SDS011;55012;47.562;18.414;2024-02-23T10:09:50;4.82;;;2.70;;
68192;SDS011;55012;47.562;18.414;2024-02-23T10:12:16;5.53;;;3.50;;
68192;SDS011;55012;47.562;18.414;2024-02-23T10:14:41;8.60;;;4.50;;
68192;SDS011;55012;47.562;18.414;2024-02-23T10:17:07;9.35;;;4.20;;
68192;SDS011;55012;47.562;18.414;2024-02-23T10:19:33;8.48;;;4.50;;
68192;SDS011;55012;47.562;18.414;2024-02-23T10:21:58;9.93;;;4.32;;
68192;SDS011;55012;47.562;18.414;2024-02-23T10:24:24;5.85;;;3.30;;
68192;SDS011;55012;47.562;18.414;2024-02-23T10:26:51;6.95;;;3.40;;
68192;SDS011;55012;47.562;18.414;2024-02-23T10:29:17;5.50;;;3.58;;
68192;SDS011;55012;47.562;18.414;2024-02-23T10:31:42;7.70;;;3.72;;
68192;SDS011;55012;47.562;18.414;2024-02-23T10:34:12;5.35;;;3.38;;
68192;SDS011;55012;47.562;18.414;2024-02-23T10:36:43;7.25;;;3.50;;
68192;SDS011;55012;47.562;18.414;2024-02-23T10:39:10;5.10;;;3.08;;
68192;SDS011;55012;47.562;18.414;2024-02-23T10:41:37;5.28;;;2.60;;
68192;SDS011;55012;47.562;18.414;2024-02-23T10:44:08;7.28;;;4.43;;
68192;SDS011;55012;47.562;18.414;2024-02-23T10:46:34;7.60;;;3.83;;
68192;SDS011;55012;47.562;18.414;2024-02-23T10:49:00;8.65;;;4.55;;
68192;SDS011;55012;47.562;18.414;2024-02-23T10:51:27;6.55;;;4.00;;
68192;SDS011;55012;47.562;18.414;2024-02-23T10:53:53;9.00;;;5.38;;
68192;SDS011;55012;47.562;18.414;2024-02-23T10:56:20;10.07;;;5.88;;
68192;SDS011;55012;47.562;18.414;2024-02-23T10:58:47;8.73;;;5.07;;
68192;SDS011;55012;47.562;18.414;2024-02-23T11:01:12;6.47;;;4.35;;
68192;SDS011;55012;47.562;18.414;2024-02-23T11:03:40;6.15;;;3.83;;
68192;SDS011;55012;47.562;18.414;2024-02-23T11:06:09;7.90;;;3.63;;
68192;SDS011;55012;47.562;18.414;2024-02-23T11:08:35;7.00;;;3.40;;
68192;SDS011;55012;47.562;18.414;2024-02-23T11:11:10;5.50;;;3.35;;
68192;SDS011;55012;47.562;18.414;2024-02-23T11:13:37;7.25;;;3.70;;
68192;SDS011;55012;47.562;18.414;2024-02-23T11:16:06;6.78;;;3.40;;
68192;SDS011;55012;47.562;18.414;2024-02-23T11:18:36;7.32;;;3.67;;
68192;SDS011;55012;47.562;18.414;2024-02-23T11:21:03;9.23;;;3.50;;
68192;SDS011;55012;47.562;18.414;2024-02-23T11:23:42;10.95;;;4.80;;
68192;SDS011;55012;47.562;18.414;2024-02-23T11:26:09;11.18;;;4.85;;
68192;SDS011;55012;47.562;18.414;2024-02-23T11:28:47;10.80;;;5.45;;
68192;SDS011;55012;47.562;18.414;2024-02-23T11:31:13;9.48;;;5.30;;
68192;SDS011;55012;47.562;18.414;2024-02-23T11:33:53;8.38;;;4.70;;
68192;SDS011;55012;47.562;18.414;2024-02-23T11:36:30;7.70;;;4.00;;
68192;SDS011;55012;47.562;18.414;2024-02-23T11:38:58;9.95;;;4.35;;
68192;SDS011;55012;47.562;18.414;2024-02-23T11:41:25;7.32;;;3.30;;
68192;SDS011;55012;47.562;18.414;2024-02-23T11:43:52;6.47;;;3.60;;
68192;SDS011;55012;47.562;18.414;2024-02-23T11:46:18;12.20;;;6.25;;
68192;SDS011;55012;47.562;18.414;2024-02-23T11:48:45;12.90;;;6.00;;
68192;SDS011;55012;47.562;18.414;2024-02-23T11:51:14;10.48;;;6.00;;
68192;SDS011;55012;47.562;18.414;2024-02-23T11:53:40;9.75;;;5.45;;
68192;SDS011;55012;47.562;18.414;2024-02-23T11:56:06;10.27;;;5.05;;
68192;SDS011;55012;47.562;18.414;2024-02-23T11:58:32;7.45;;;3.92;;
68192;SDS011;55012;47.562;18.414;2024-02-23T12:00:58;6.63;;;2.90;;
68192;SDS011;55012;47.562;18.414;2024-02-23T12:03:27;4.13;;;2.15;;
68192;SDS011;55012;47.562;18.414;2024-02-23T12:05:53;2.72;;;1.80;;
68192;SDS011;55012;47.562;18.414;2024-02-23T12:08:18;2.38;;;1.45;;
68192;SDS011;55012;47.562;18.414;2024-02-23T12:10:44;2.20;;;1.60;;
68192;SDS011;55012;47.562;18.414;2024-02-23T12:13:10;2.75;;;1.48;;
68192;SDS011;55012;47.562;18.414;2024-02-23T12:15:35;2.47;;;1.40;;
68192;SDS011;55012;47.562;18.414;2024-02-23T12:18:00;2.35;;;1.50;;
68192;SDS011;55012;47.562;18.414;2024-02-23T12:20:28;2.50;;;1.80;;
68192;SDS011;55012;47.562;18.414;2024-02-23T12:22:57;2.28;;;1.63;;
68192;SDS011;55012;47.562;18.414;2024-02-23T12:25:23;3.10;;;1.90;;
68192;SDS011;55012;47.562;18.414;2024-02-23T12:27:53;3.05;;;1.80;;
68192;SDS011;55012;47.562;18.414;2024-02-23T12:30:19;3.80;;;1.85;;
68192;SDS011;55012;47.562;18.414;2024-02-23T12:32:45;3.70;;;2.00;;
68192;SDS011;55012;47.562;18.414;2024-02-23T12:35:11;5.00;;;2.05;;
68192;SDS011;55012;47.562;18.414;2024-02-23T12:37:37;3.47;;;2.40;;
68192;SDS011;55012;47.562;18.414;2024-02-23T12:40:02;2.80;;;1.90;;
68192;SDS011;55012;47.562;18.414;2024-02-23T12:42:28;3.80;;;2.20;;
68192;SDS011;55012;47.562;18.414;2024-02-23T12:44:53;3.53;;;2.28;;
68192;SDS011;55012;47.562;18.414;2024-02-23T12:47:19;5.55;;;2.30;;
68192;SDS011;55012;47.562;18.414;2024-02-23T12:49:44;4.30;;;2.30;;
68192;SDS011;55012;47.562;18.414;2024-02-23T12:52:09;4.00;;;2.30;;
68192;SDS011;55012;47.562;18.414;2024-02-23T12:54:35;3.95;;;2.40;;
68192;SDS011;55012;47.562;18.414;2024-02-23T12:57:00;3.75;;;2.00;;
68192;SDS011;55012;47.562;18.414;2024-02-23T12:59:26;3.80;;;2.30;;
68192;SDS011;55012;47.562;18.414;2024-02-23T13:01:51;5.45;;;2.42;;
68192;SDS011;55012;47.562;18.414;2024-02-23T13:04:16;5.15;;;2.40;;
68192;SDS011;55012;47.562;18.414;2024-02-23T13:06:42;4.55;;;2.60;;
68192;SDS011;55012;47.562;18.414;2024-02-23T13:09:07;5.70;;;2.53;;
68192;SDS011;55012;47.562;18.414;2024-02-23T13:11:34;3.10;;;2.05;;
68192;SDS011;55012;47.562;18.414;2024-02-23T13:14:00;4.15;;;2.15;;
68192;SDS011;55012;47.562;18.414;2024-02-23T13:16:25;4.57;;;2.40;;
68192;SDS011;55012;47.562;18.414;2024-02-23T13:18:51;5.30;;;2.00;;
68192;SDS011;55012;47.562;18.414;2024-02-23T13:21:17;4.13;;;2.20;;
68192;SDS011;55012;47.562;18.414;2024-02-23T13:23:42;3.88;;;2.20;;
68192;SDS011;55012;47.562;18.414;2024-02-23T13:26:08;4.00;;;2.45;;
68192;SDS011;55012;47.562;18.414;2024-02-23T13:28:35;4.63;;;2.67;;
68192;SDS011;55012;47.562;18.414;2024-02-23T13:31:01;4.28;;;2.72;;
68192;SDS011;55012;47.562;18.414;2024-02-23T13:33:26;4.22;;;2.50;;
68192;SDS011;55012;47.562;18.414;2024-02-23T13:35:52;4.65;;;2.60;;
68192;SDS011;55012;47.562;18.414;2024-02-23T13:38:18;3.80;;;2.30;;
68192;SDS011;55012;47.562;18.414;2024-02-23T13:40:43;3.75;;;2.50;;
68192;SDS011;55012;47.562;18.414;2024-02-23T13:43:09;6.07;;;3.42;;
68192;SDS011;55012;47.562;18.414;2024-02-23T13:45:47;8.10;;;4.22;;
68192;SDS011;55012;47.562;18.414;2024-02-23T13:48:19;9.52;;;4.22;;
68192;SDS011;55012;47.562;18.414;2024-02-23T13:50:48;8.60;;;4.80;;
68192;SDS011;55012;47.562;18.414;2024-02-23T13:53:14;20.48;;;11.13;;
68192;SDS011;55012;47.562;18.414;2024-02-23T13:55:40;14.95;;;6.75;;
68192;SDS011;55012;47.562;18.414;2024-02-23T13:58:07;10.27;;;5.65;;
68192;SDS011;55012;47.562;18.414;2024-02-23T14:00:33;11.82;;;6.22;;
68192;SDS011;55012;47.562;18.414;2024-02-23T14:02:58;13.50;;;7.45;;
68192;SDS011;55012;47.562;18.414;2024-02-23T14:05:24;10.20;;;4.90;;
68192;SDS011;55012;47.562;18.414;2024-02-23T14:07:50;7.70;;;4.63;;
68192;SDS011;55012;47.562;18.414;2024-02-23T14:10:19;7.78;;;4.18;;
68192;SDS011;55012;47.562;18.414;2024-02-23T14:12:44;7.90;;;4.40;;
68192;SDS011;55012;47.562;18.414;2024-02-23T14:15:10;10.95;;;5.72;;
68192;SDS011;55012;47.562;18.414;2024-02-23T14:17:35;10.75;;;6.00;;
68192;SDS011;55012;47.562;18.414;2024-02-23T14:20:01;16.60;;;9.10;;
68192;SDS011;55012;47.562;18.414;2024-02-23T14:22:27;15.07;;;7.97;;
68192;SDS011;55012;47.562;18.414;2024-02-23T14:24:53;10.30;;;5.80;;
68192;SDS011;55012;47.562;18.414;2024-02-23T14:27:18;11.35;;;6.57;;